.
WxDataArchive / Data Records for 2016-04-18
2016-04-17 April 2016 2016-04-19

Data Records for Monday, 18 April 2016

Time	Temp	Chill	HIndex	Humid	Dewpt	 Wind 	HiWind	WindDir	Rain 	Barom
-----	----	-----	------	-----	-----	------	------	-------	-----	-----
00:00	57.3	57.3	57.3	56	41.7	0	0	---	0.00	30.312 
00:05	57.2	57.2	57.2	57	42.1	0	0	---	0.00	30.312 
00:10	56.9	56.9	56.9	57	41.8	0	0	---	0.00	30.312 
00:15	56.7	56.7	56.7	58	42.1	0	1	68	0.00	30.310 
00:20	56.6	56.6	56.6	58	42.0	0	1	---	0.00	30.310 
00:25	56.5	56.5	56.5	58	41.9	0	0	---	0.00	30.310 
00:30	56.3	56.3	56.3	59	42.2	0	0	---	0.00	30.311 
00:35	56.0	56.0	56.0	59	41.9	0	0	---	0.00	30.311 
00:40	55.9	55.9	55.9	59	41.8	0	0	---	0.00	30.311 
00:45	55.6	55.6	55.6	60	41.9	0	0	---	0.00	30.310 
00:50	55.3	55.3	55.3	61	42.1	0	0	---	0.00	30.310 
00:55	55.0	55.0	55.0	61	41.8	0	0	---	0.00	30.310 
01:00	54.7	54.7	54.7	62	41.9	0	0	---	0.00	30.310 
01:05	54.4	54.4	54.4	62	41.7	0	0	---	0.00	30.310 
01:10	54.2	54.2	54.2	62	41.5	0	0	---	0.00	30.310 
01:15	53.9	53.9	53.9	63	41.6	0	0	---	0.00	30.311 
01:20	53.8	53.8	53.8	63	41.5	0	0	---	0.00	30.311 
01:25	53.6	53.6	53.6	64	41.7	0	0	---	0.00	30.311 
01:30	53.3	53.3	53.3	64	41.4	0	0	---	0.00	30.312 
01:35	53.1	53.1	53.1	65	41.6	0	0	---	0.00	30.312 
01:40	52.8	52.8	52.8	65	41.4	0	0	---	0.00	30.312 
01:45	52.5	52.5	52.5	66	41.5	0	0	---	0.00	30.311 
01:50	52.2	52.2	52.2	66	41.2	0	0	---	0.00	30.311 
01:55	52.0	52.0	52.0	67	41.4	0	0	---	0.00	30.311 
02:00	51.9	51.9	51.9	68	41.7	0	0	---	0.00	30.311 
02:05	51.7	51.7	51.7	69	41.9	0	0	---	0.00	30.311 
02:10	51.6	51.6	51.6	70	42.1	0	0	---	0.00	30.311 
02:15	51.4	51.4	51.4	71	42.3	0	0	---	0.00	30.307 
02:20	51.4	51.4	51.4	72	42.7	0	0	---	0.00	30.307 
02:25	51.1	51.1	51.1	72	42.4	0	0	---	0.00	30.307 
02:30	51.0	51.0	51.0	73	42.7	0	0	---	0.00	30.303 
02:35	50.8	50.8	50.8	74	42.8	0	0	---	0.00	30.303 
02:40	50.7	50.7	50.7	75	43.1	0	0	---	0.00	30.303 
02:45	50.5	50.5	50.5	75	42.9	0	0	---	0.00	30.300 
02:50	50.2	50.2	50.2	75	42.6	0	0	---	0.00	30.300 
02:55	49.9	49.9	49.9	76	42.6	0	0	---	0.00	30.300 
03:00	49.8	49.8	49.8	76	42.5	0	0	---	0.00	30.298 
03:05	49.6	49.6	49.6	76	42.3	0	0	---	0.00	30.298 
03:10	49.6	49.6	49.6	77	42.7	0	0	---	0.00	30.298 
03:15	49.5	49.5	49.5	77	42.6	0	0	---	0.00	30.297 
03:20	49.4	49.4	49.4	77	42.5	0	0	---	0.00	30.297 
03:25	49.2	49.2	49.2	77	42.3	0	0	---	0.00	30.297 
03:30	49.1	49.1	49.1	77	42.2	0	0	---	0.00	30.298 
03:35	48.9	48.9	48.9	77	42.0	0	0	---	0.00	30.298 
03:40	48.8	48.8	48.8	77	41.9	0	0	---	0.00	30.298 
03:45	48.6	48.6	48.6	77	41.7	0	0	---	0.00	30.297 
03:50	48.5	48.5	48.5	77	41.6	0	0	---	0.00	30.297 
03:55	48.3	48.3	48.3	77	41.4	0	0	---	0.00	30.297 
04:00	48.3	48.3	48.3	77	41.4	0	0	---	0.00	30.292 
04:05	48.2	48.2	48.2	77	41.3	0	0	---	0.00	30.292 
04:10	48.0	48.0	48.0	78	41.5	0	0	---	0.00	30.292 
04:15	47.9	47.9	47.9	78	41.4	0	0	---	0.00	30.290 
04:20	47.9	47.9	47.9	79	41.7	0	0	---	0.00	30.290 
04:25	47.7	47.7	47.7	78	41.2	0	0	---	0.00	30.290 
04:30	47.6	47.6	47.6	78	41.1	0	0	---	0.00	30.289 
04:35	47.4	47.4	47.4	79	41.2	0	0	---	0.00	30.289 
04:40	47.4	47.4	47.4	79	41.2	0	0	---	0.00	30.289 
04:45	47.4	47.4	47.4	79	41.2	0	0	---	0.00	30.288 
04:50	47.3	47.3	47.3	79	41.1	0	0	---	0.00	30.288 
04:55	47.1	47.1	47.1	79	40.9	0	0	---	0.00	30.288 
05:00	47.0	47.0	47.0	79	40.8	0	0	---	0.00	30.286 
05:05	46.8	46.8	46.8	80	41.0	0	0	---	0.00	30.286 
05:10	46.8	46.8	46.8	80	41.0	0	0	---	0.00	30.286 
05:15	46.7	46.7	46.7	80	40.9	0	0	---	0.00	30.286 
05:20	46.5	46.5	46.5	81	41.0	0	0	---	0.00	30.286 
05:25	46.5	46.5	46.5	81	41.0	0	0	---	0.00	30.286 
05:30	46.5	46.5	46.5	81	41.0	0	0	---	0.00	30.288 
05:35	46.5	46.5	46.5	81	41.0	0	0	---	0.00	30.288 
05:40	46.4	46.4	46.4	81	40.9	0	0	---	0.00	30.288 
05:45	46.4	46.4	46.4	82	41.2	0	0	---	0.00	30.286 
05:50	46.2	46.2	46.2	82	41.0	0	0	---	0.00	30.286 
05:55	46.2	46.2	46.2	82	41.0	0	0	---	0.00	30.286 
06:00	46.2	46.2	46.2	83	41.3	0	0	---	0.00	30.286 
06:05	46.2	46.2	46.2	83	41.3	0	0	---	0.00	30.286 
06:10	46.2	46.2	46.2	83	41.3	0	0	---	0.00	30.286 
06:15	46.1	46.1	46.1	83	41.2	0	0	---	0.00	30.289 
06:20	46.0	46.0	46.0	82	40.8	0	0	---	0.00	30.289 
06:25	45.8	45.8	45.8	82	40.6	0	0	---	0.00	30.289 
06:30	45.7	45.7	45.7	82	40.5	0	0	---	0.00	30.288 
06:35	45.7	45.7	45.7	83	40.8	0	0	---	0.00	30.288 
06:40	45.5	45.5	45.5	83	40.6	0	0	---	0.00	30.288 
06:45	45.5	45.5	45.5	83	40.6	0	0	---	0.00	30.289 
06:50	45.5	45.5	45.5	83	40.6	0	0	---	0.00	30.289 
06:55	45.4	45.4	45.4	84	40.9	0	0	---	0.00	30.289 
07:00	45.4	45.4	45.4	84	40.9	0	0	---	0.00	30.291 
07:05	45.4	45.4	45.4	84	40.9	0	0	---	0.00	30.291 
07:10	45.2	45.2	45.2	84	40.7	0	0	---	0.00	30.291 
07:15	45.2	45.2	45.2	85	41.0	0	0	---	0.00	30.297 
07:20	45.2	45.2	45.2	85	41.0	0	0	---	0.00	30.297 
07:25	45.2	45.2	45.2	85	41.0	0	0	---	0.00	30.297 
07:30	45.2	45.2	45.2	85	41.0	0	0	---	0.00	30.297 
07:35	45.4	45.4	45.4	85	41.2	0	0	---	0.00	30.297 
07:40	45.5	45.5	45.5	86	41.6	0	0	---	0.00	30.297 
07:45	45.8	45.8	45.8	86	41.9	0	0	---	0.00	30.302 
07:50	46.4	46.4	46.4	86	42.4	0	0	---	0.00	30.302 
07:55	47.3	47.3	47.3	87	43.6	0	0	---	0.00	30.302 
08:00	48.0	48.0	48.0	85	43.7	0	0	---	0.00	30.300 
08:05	48.6	48.6	48.6	85	44.3	0	0	---	0.00	30.300 
08:10	49.4	49.4	49.4	84	44.8	0	0	---	0.00	30.300 
08:15	50.2	50.2	50.2	84	45.6	0	0	---	0.00	30.308 
08:20	51.4	51.4	51.4	83	46.4	0	0	---	0.00	30.308 
08:25	53.3	53.3	53.3	78	46.6	0	0	---	0.00	30.308 
08:30	55.0	55.0	55.0	72	46.1	0	0	---	0.00	30.304 
08:35	56.6	56.6	56.6	67	45.8	0	0	---	0.00	30.304 
08:40	57.8	57.8	57.8	63	45.3	0	0	---	0.00	30.304 
08:45	58.7	58.7	58.7	60	44.8	0	0	---	0.00	30.299 
08:50	59.6	59.6	59.6	57	44.3	0	1	68	0.00	30.299 
08:55	60.4	60.4	60.4	52	42.7	0	2	68	0.00	30.299 
09:00	60.7	60.7	60.7	52	43.0	0	2	68	0.00	30.302 
09:05	61.2	61.2	61.2	53	43.9	0	2	68	0.00	30.302 
09:10	61.6	61.6	61.6	51	43.3	0	1	68	0.00	30.302 
09:15	62.3	62.3	62.3	52	44.4	0	1	68	0.00	30.310 
09:20	63.1	63.1	63.1	48	43.1	0	0	---	0.00	30.310 
09:25	63.7	63.7	63.7	46	42.5	0	1	68	0.00	30.310 
09:30	64.5	64.5	64.5	44	42.1	0	1	68	0.00	30.318 
09:35	65.0	65.0	65.0	43	42.0	0	1	68	0.00	30.318 
09:40	65.5	65.5	65.5	42	41.8	0	1	68	0.00	30.318 
09:45	65.8	65.8	65.8	46	44.4	0	2	68	0.00	30.314 
09:50	66.4	66.4	66.4	42	42.6	0	1	68	0.00	30.314 
09:55	67.3	67.3	67.3	44	44.6	0	1	68	0.00	30.314 
10:00	67.8	67.8	67.8	43	44.5	0	1	68	0.00	30.308 
10:05	68.3	68.3	68.3	41	43.7	0	1	68	0.00	30.308 
10:10	68.6	68.6	68.6	41	44.0	0	1	68	0.00	30.308 
10:15	69.3	69.3	69.3	39	43.3	0	3	68	0.00	30.299 
10:20	69.4	69.4	69.4	39	43.4	1	4	68	0.00	30.299 
10:25	69.6	69.6	69.6	39	43.5	1	4	68	0.00	30.299 
10:30	69.9	69.9	69.9	38	43.1	1	3	68	0.00	30.295 
10:35	70.4	70.4	70.4	39	44.2	1	3	68	0.00	30.295 
10:40	70.8	70.8	70.8	40	45.3	1	4	68	0.00	30.295 
10:45	71.1	71.1	71.1	38	44.2	1	2	68	0.00	30.293 
10:50	71.6	71.6	71.6	39	45.3	0	3	68	0.00	30.293 
10:55	72.3	72.3	72.3	41	47.3	0	1	68	0.00	30.293 
11:00	73.0	73.0	73.0	38	45.9	0	3	68	0.00	30.290 
11:05	73.5	73.5	73.5	37	45.6	0	2	68	0.00	30.290 
11:10	73.7	73.7	73.7	34	43.6	1	4	68	0.00	30.290 
11:15	74.2	74.2	74.2	36	45.5	0	1	68	0.00	30.296 
11:20	74.7	74.7	74.7	35	45.2	1	2	68	0.00	30.296 
11:25	75.1	75.1	77.3	36	46.3	0	1	68	0.00	30.296 
11:30	75.3	75.3	77.4	36	46.5	0	2	68	0.00	30.295 
11:35	75.4	75.4	77.4	36	46.6	1	3	68	0.00	30.295 
11:40	75.8	75.8	77.7	38	48.4	1	3	68	0.00	30.295 
11:45	76.3	76.3	77.7	35	46.6	0	2	68	0.00	30.292 
11:50	77.0	77.0	77.9	33	45.7	0	2	68	0.00	30.292 
11:55	77.7	77.7	78.6	40	51.4	0	1	68	0.00	30.292 
12:00	77.9	77.9	78.1	30	43.9	0	3	68	0.00	30.292 
12:05	78.1	78.1	78.4	34	47.4	0	1	68	0.00	30.292 
12:10	78.3	78.3	78.3	30	44.3	0	2	68	0.00	30.292 
12:15	78.6	78.6	78.5	31	45.4	0	2	68	0.00	30.288 
12:20	78.6	78.6	78.4	30	44.6	1	3	68	0.00	30.288 
12:25	78.8	78.8	78.4	28	42.9	1	2	68	0.00	30.288 
12:30	78.8	78.8	78.4	28	42.9	0	1	68	0.00	30.278 
12:35	79.2	79.2	78.8	31	45.9	0	1	68	0.00	30.278 
12:40	79.4	79.4	78.7	28	43.4	1	4	68	0.00	30.278 
12:45	79.4	79.4	78.7	27	42.5	0	2	68	0.00	30.275 
12:50	79.4	79.4	78.7	27	42.5	0	1	68	0.00	30.275 
12:55	79.6	79.6	78.8	28	43.6	0	1	45	0.00	30.275 
13:00	80.1	80.1	79.1	28	44.0	1	3	45	0.00	30.265 
13:05	80.3	80.3	79.2	28	44.2	1	3	90	0.00	30.265 
13:10	80.5	80.5	79.4	29	45.3	1	4	90	0.00	30.265 
13:15	80.7	80.7	79.4	27	43.6	0	1	90	0.00	30.261 
13:20	80.9	80.9	79.5	27	43.8	1	3	90	0.00	30.261 
13:25	81.1	81.1	79.7	27	43.9	1	3	90	0.00	30.261 
13:30	80.9	80.9	79.4	25	41.8	1	5	90	0.00	30.255 
13:35	80.7	80.7	79.4	26	42.6	1	5	112	0.00	30.255 
13:40	80.5	80.5	79.2	25	41.4	0	2	112	0.00	30.255 
13:45	80.9	80.9	79.5	27	43.8	0	1	112	0.00	30.247 
13:50	80.9	80.9	79.3	23	39.6	0	1	112	0.00	30.247 
13:55	81.1	81.1	79.5	25	41.9	0	1	112	0.00	30.247 
14:00	81.2	81.2	79.6	25	42.0	1	2	112	0.00	30.241 
14:05	81.1	81.1	79.5	24	40.9	1	2	112	0.00	30.241 
14:10	81.2	81.2	79.8	28	45.0	0	2	112	0.00	30.241 
14:15	81.6	81.6	79.9	25	42.3	0	1	112	0.00	30.233 
14:20	81.4	81.4	79.6	22	38.9	1	3	112	0.00	30.233 
14:25	80.9	80.9	79.4	24	40.7	0	2	22	0.00	30.233 
14:30	81.1	81.1	79.6	26	42.9	0	2	22	0.00	30.235 
14:35	81.4	81.4	79.8	26	43.2	0	2	22	0.00	30.235 
14:40	81.6	81.6	79.9	25	42.3	1	4	90	0.00	30.235 
14:45	81.8	81.8	80.2	28	45.5	0	3	90	0.00	30.231 
14:50	82.0	82.0	80.1	25	42.7	0	3	45	0.00	30.231 
14:55	81.8	81.8	80.0	25	42.5	1	5	292	0.00	30.231 
15:00	81.6	81.6	79.8	24	41.3	1	3	292	0.00	30.226 
15:05	81.8	81.8	80.0	25	42.5	1	3	338	0.00	30.226 
15:10	82.2	82.2	80.1	23	40.7	0	3	270	0.00	30.226 
15:15	82.4	82.4	80.5	26	44.0	0	3	225	0.00	30.220 
15:20	82.2	82.2	80.1	23	40.7	0	2	225	0.00	30.220 
15:25	82.4	82.4	80.3	23	40.9	1	3	248	0.00	30.220 
15:30	82.4	82.4	80.3	23	40.9	1	3	248	0.00	30.217 
15:35	82.0	82.0	80.0	22	39.4	1	3	270	0.00	30.217 
15:40	82.2	82.2	80.3	25	42.9	1	3	270	0.00	30.217 
15:45	82.4	82.4	80.3	24	42.0	0	3	90	0.00	30.206 
15:50	83.0	83.0	80.7	23	41.4	0	3	248	0.00	30.206 
15:55	83.0	83.0	80.8	24	42.5	0	1	248	0.00	30.206 
16:00	82.2	82.2	80.3	26	43.9	1	3	135	0.00	30.201 
16:05	81.8	81.8	79.9	23	40.4	1	4	315	0.00	30.201 
16:10	81.6	81.6	79.9	25	42.3	1	4	292	0.00	30.201 
16:15	81.4	81.4	79.6	23	40.0	1	3	292	0.00	30.197 
16:20	81.4	81.4	79.7	24	41.1	1	4	292	0.00	30.197 
16:25	81.4	81.4	79.6	23	40.0	1	3	315	0.00	30.197 
16:30	81.4	81.4	79.7	25	42.2	0	3	315	0.00	30.189 
16:35	81.2	81.2	79.5	23	39.9	1	3	315	0.00	30.189 
16:40	81.4	81.4	79.6	23	40.0	1	4	315	0.00	30.189 
16:45	81.4	81.4	79.7	24	41.1	1	4	315	0.00	30.186 
16:50	81.2	81.2	79.4	22	38.7	2	4	270	0.00	30.186 
16:55	81.1	81.1	79.4	23	39.8	1	2	292	0.00	30.186 
17:00	81.2	81.2	79.5	23	39.9	1	5	292	0.00	30.185 
17:05	81.4	81.4	79.6	23	40.0	1	4	292	0.00	30.185 
17:10	81.4	81.4	79.6	23	40.0	1	3	292	0.00	30.185 
17:15	81.4	81.4	79.6	22	38.9	2	3	292	0.00	30.182 
17:20	81.1	81.1	79.4	22	38.6	1	4	292	0.00	30.182 
17:25	81.1	81.1	79.4	23	39.8	1	3	292	0.00	30.182 
17:30	81.2	81.2	79.5	24	41.0	1	3	292	0.00	30.179 
17:35	81.4	81.4	79.6	23	40.0	1	2	292	0.00	30.179 
17:40	81.4	81.4	79.6	22	38.9	1	4	292	0.00	30.179 
17:45	81.6	81.6	79.9	25	42.3	0	3	292	0.00	30.175 
17:50	81.4	81.4	79.6	22	38.9	1	3	292	0.00	30.175 
17:55	81.2	81.2	79.5	23	39.9	1	2	292	0.00	30.175 
18:00	81.1	81.1	79.4	23	39.8	1	2	292	0.00	30.178 
18:05	80.9	80.9	79.4	25	41.8	0	3	292	0.00	30.178 
18:10	80.5	80.5	79.1	23	39.3	0	1	292	0.00	30.178 
18:15	80.3	80.3	79.0	24	40.2	0	2	292	0.00	30.177 
18:20	80.3	80.3	78.9	23	39.1	0	1	292	0.00	30.177 
18:25	80.1	80.1	79.1	27	43.1	0	1	292	0.00	30.177 
18:30	79.9	79.9	78.6	22	37.6	0	2	292	0.00	30.178 
18:35	79.8	79.8	78.6	23	38.7	0	1	292	0.00	30.178 
18:40	79.6	79.6	78.6	24	39.6	1	3	292	0.00	30.178 
18:45	79.4	79.4	78.6	26	41.5	0	1	292	0.00	30.178 
18:50	79.4	79.4	78.5	25	40.5	0	1	292	0.00	30.178 
18:55	79.4	79.4	78.5	25	40.5	0	1	292	0.00	30.178 
19:00	79.2	79.2	78.4	25	40.3	0	1	292	0.00	30.176 
19:05	79.2	79.2	78.5	26	41.3	0	1	292	0.00	30.176 
19:10	79.0	79.0	78.3	25	40.2	0	1	292	0.00	30.176 
19:15	78.8	78.8	78.3	26	41.0	0	1	292	0.00	30.174 
19:20	78.5	78.5	78.0	25	39.7	0	1	292	0.00	30.174 
19:25	78.1	78.1	77.9	26	40.4	0	0	---	0.00	30.174 
19:30	77.7	77.7	77.6	25	39.1	0	0	---	0.00	30.172 
19:35	77.4	77.4	77.5	25	38.8	0	0	---	0.00	30.172 
19:40	77.2	77.2	77.5	26	39.6	0	0	---	0.00	30.172 
19:45	76.8	76.8	77.3	26	39.3	0	0	---	0.00	30.173 
19:50	76.7	76.7	77.3	26	39.2	0	0	---	0.00	30.173 
19:55	76.3	76.3	77.1	26	38.9	0	0	---	0.00	30.173 
20:00	76.0	76.0	77.1	27	39.6	0	0	---	0.00	30.174 
20:05	75.6	75.6	76.9	27	39.2	0	0	---	0.00	30.174 
20:10	75.1	75.1	76.8	28	39.8	0	0	---	0.00	30.174 
20:15	74.7	74.7	74.7	28	39.4	0	0	---	0.00	30.162 
20:20	74.0	74.0	74.0	29	39.7	0	0	---	0.00	30.162 
20:25	73.3	73.3	73.3	30	40.0	0	0	---	0.00	30.162 
20:30	72.7	72.7	72.7	31	40.3	0	0	---	0.00	30.161 
20:35	72.1	72.1	72.1	31	39.8	0	0	---	0.00	30.161 
20:40	71.5	71.5	71.5	35	42.4	0	0	---	0.00	30.161 
20:45	70.9	70.9	70.9	35	41.9	0	0	---	0.00	30.167 
20:50	70.3	70.3	70.3	35	41.3	0	0	---	0.00	30.167 
20:55	69.8	69.8	69.8	38	43.0	0	0	---	0.00	30.167 
21:00	69.1	69.1	69.1	39	43.1	0	0	---	0.00	30.168 
21:05	68.6	68.6	68.6	39	42.6	0	0	---	0.00	30.168 
21:10	68.1	68.1	68.1	41	43.5	0	0	---	0.00	30.168 
21:15	67.8	67.8	67.8	40	42.6	0	0	---	0.00	30.163 
21:20	67.3	67.3	67.3	41	42.8	0	0	---	0.00	30.163 
21:25	66.8	66.8	66.8	42	43.0	0	0	---	0.00	30.163 
21:30	66.3	66.3	66.3	44	43.7	0	0	---	0.00	30.165 
21:35	66.0	66.0	66.0	45	44.0	0	0	---	0.00	30.165 
21:40	65.5	65.5	65.5	46	44.2	0	0	---	0.00	30.165 
21:45	65.0	65.0	65.0	46	43.7	0	0	---	0.00	30.167 
21:50	64.7	64.7	64.7	47	44.0	0	0	---	0.00	30.167 
21:55	64.3	64.3	64.3	48	44.2	0	0	---	0.00	30.167 
22:00	64.0	64.0	64.0	50	45.0	0	0	---	0.00	30.168 
22:05	63.7	63.7	63.7	50	44.7	0	0	---	0.00	30.168 
22:10	63.4	63.4	63.4	51	45.0	0	0	---	0.00	30.168 
22:15	63.1	63.1	63.1	51	44.7	0	0	---	0.00	30.165 
22:20	62.9	62.9	62.9	54	46.0	0	1	292	0.00	30.165 
22:25	62.6	62.6	62.6	55	46.2	0	0	---	0.00	30.165 
22:30	62.3	62.3	62.3	54	45.4	0	0	---	0.00	30.166 
22:35	62.1	62.1	62.1	54	45.3	0	0	---	0.00	30.166 
22:40	61.8	61.8	61.8	54	45.0	0	0	---	0.00	30.166 
22:45	61.5	61.5	61.5	55	45.2	0	0	---	0.00	30.165 
22:50	61.5	61.5	61.5	55	45.2	0	0	---	0.00	30.165 
22:55	61.2	61.2	61.2	55	44.9	0	0	---	0.00	30.165 
23:00	61.0	61.0	61.0	56	45.2	0	0	---	0.00	30.163 
23:05	60.9	60.9	60.9	56	45.1	0	0	---	0.00	30.163 
23:10	60.9	60.9	60.9	56	45.1	0	0	---	0.00	30.163 
23:15	60.7	60.7	60.7	57	45.4	0	1	292	0.00	30.161 
23:20	60.7	60.7	60.7	57	45.4	0	1	292	0.00	30.161 
23:25	60.9	60.9	60.9	58	46.0	0	1	292	0.00	30.161 
23:30	60.9	60.9	60.9	57	45.6	0	0	---	0.00	30.161 
23:35	60.9	60.9	60.9	58	46.0	0	0	---	0.00	30.161 
23:40	60.7	60.7	60.7	57	45.4	0	0	---	0.00	30.161 
23:45	60.7	60.7	60.7	57	45.4	0	0	---	0.00	30.157 
23:50	60.5	60.5	60.5	57	45.2	0	0	---	0.00	30.157 
23:55	60.2	60.2	60.2	57	44.9	0	0	---	0.00	30.157 

CoCoRaHS
IN-AL-39
A2 Web Hosting
Creative Commons License
GoDaddy
search engine by freefind advanced

loaded 2018-11-15 05:05:26 • last modified 2010-11-18 10:43:29
Privacy PolicyDisclaimer
• wx.awcolley.com is powered by PmWiki v.2002016 •
• all content (unless otherwise noted) © 2018 A W Colley